Time;durP1;ratioP1;P1;durP2;ratioP2;P2;SDS_P1;SDS_P2;PMS_P1;PMS_P2;Temp;Humidity;BMP_temperature;BMP_pressure;BME280_temperature;BME280_humidity;BME280_pressure;Samples;Min_cycle;Max_cycle;Signal;HPM_P1;HPM_P2
2021/12/12 00:01:30;;;;;;;9.07;7.97;;;;;;;0.72;100.00;95272.34;4955596;29;20206;-72
2021/12/12 00:04:13;;;;;;;10.10;7.73;;;;;;;0.81;100.00;95286.16;4943301;29;20209;-73
2021/12/12 00:06:59;;;;;;;8.70;7.57;;;;;;;0.82;100.00;95287.69;4951270;29;20252;-72
2021/12/12 00:09:30;;;;;;;9.40;7.97;;;;;;;0.78;100.00;95286.91;4949078;29;20214;-73
2021/12/12 00:11:58;;;;;;;12.73;7.50;;;;;;;0.76;100.00;95296.53;4953117;28;20228;-73
2021/12/12 00:14:32;;;;;;;8.93;7.47;;;;;;;0.81;100.00;95294.22;4936734;29;20191;-73
2021/12/12 00:16:58;;;;;;;9.27;7.30;;;;;;;0.76;100.00;95291.94;4936559;29;20218;-73
2021/12/12 00:19:26;;;;;;;9.50;7.47;;;;;;;0.67;100.00;95293.44;4953385;28;20296;-73
2021/12/12 00:21:55;;;;;;;7.57;6.77;;;;;;;0.61;100.00;95297.69;4953589;29;20193;-72
2021/12/12 00:24:21;;;;;;;9.87;6.83;;;;;;;0.69;100.00;95301.91;4962150;28;20243;-73
2021/12/12 00:26:49;;;;;;;10.27;7.07;;;;;;;0.68;100.00;95303.06;4937688;28;20281;-73
2021/12/12 00:29:21;;;;;;;8.00;6.73;;;;;;;0.69;100.00;95312.66;4944408;28;20210;-73
2021/12/12 00:31:51;;;;;;;9.57;7.43;;;;;;;0.67;100.00;95309.56;4973223;28;20189;-72
2021/12/12 00:34:18;;;;;;;8.63;6.50;;;;;;;0.62;100.00;95315.34;4954486;28;20201;-73
2021/12/12 00:36:44;;;;;;;7.47;6.20;;;;;;;0.51;100.00;95298.44;4940485;28;20257;-73
2021/12/12 00:39:15;;;;;;;7.57;6.77;;;;;;;0.64;100.00;95329.16;4958422;28;20300;-73
2021/12/12 00:41:49;;;;;;;7.30;6.60;;;;;;;0.71;100.00;95331.84;4953842;28;20257;-73
2021/12/12 00:44:16;;;;;;;9.53;7.10;;;;;;;0.79;100.00;95320.72;4953180;28;20227;-73
2021/12/12 00:46:43;;;;;;;7.90;6.80;;;;;;;0.77;100.00;95333.00;4949884;29;20488;-73
2021/12/12 00:49:10;;;;;;;7.20;6.50;;;;;;;0.64;100.00;95331.84;4942054;28;20225;-73
2021/12/12 00:51:39;;;;;;;7.07;6.10;;;;;;;0.65;100.00;95330.69;4954471;29;20209;-72
2021/12/12 00:54:07;;;;;;;8.10;6.47;;;;;;;0.52;100.00;95311.50;4953031;29;20189;-73
2021/12/12 00:56:32;;;;;;;6.87;6.17;;;;;;;0.63;100.00;95341.81;4936093;29;20198;-73
2021/12/12 00:58:59;;;;;;;7.30;6.60;;;;;;;0.67;100.00;95331.06;4920210;28;20216;-73
2021/12/12 01:01:29;;;;;;;7.60;6.80;;;;;;;0.64;100.00;95332.63;4960481;28;20225;-72
2021/12/12 01:04:00;;;;;;;9.53;6.83;;;;;;;0.66;100.00;95329.56;4953890;28;20220;-72
2021/12/12 01:06:27;;;;;;;8.00;6.97;;;;;;;0.63;100.00;95347.19;4949399;28;20558;-72
2021/12/12 01:08:55;;;;;;;8.97;7.27;;;;;;;0.64;100.00;95340.69;4934900;29;20221;-73
2021/12/12 01:11:30;;;;;;;7.63;6.67;;;;;;;0.61;100.00;95338.00;4923325;29;20280;-72
2021/12/12 01:13:56;;;;;;;8.67;7.10;;;;;;;0.69;100.00;95337.63;4946553;28;20193;-72
2021/12/12 01:16:24;;;;;;;9.23;7.60;;;;;;;0.77;100.00;95341.06;4952858;29;20226;-72
2021/12/12 01:18:59;;;;;;;8.83;7.27;;;;;;;0.57;100.00;95338.00;4943318;28;20226;-72
2021/12/12 01:21:36;;;;;;;8.63;7.73;;;;;;;0.48;100.00;95356.38;4949713;28;20678;-72
2021/12/12 01:24:15;;;;;;;8.57;7.40;;;;;;;0.72;100.00;95350.28;4957258;28;20213;-72
2021/12/12 01:26:41;;;;;;;8.47;7.30;;;;;;;0.73;100.00;95351.81;4972007;28;20200;-72
2021/12/12 01:29:08;;;;;;;8.77;7.87;;;;;;;0.89;100.00;95356.81;4961302;28;20757;-72
2021/12/12 01:31:39;;;;;;;10.93;8.63;;;;;;;0.88;100.00;95363.34;4968622;28;20723;-73
2021/12/12 01:34:10;;;;;;;10.27;8.47;;;;;;;0.82;100.00;95354.13;4941710;29;20687;-73
2021/12/12 01:39:33;;;;;;;10.27;8.80;;;;;;;0.73;100.00;95372.56;4958519;28;20632;-72
2021/12/12 01:42:04;;;;;;;10.23;8.00;;;;;;;0.73;100.00;95381.38;4962873;28;20185;-72
2021/12/12 01:44:40;;;;;;;10.17;9.07;;;;;;;0.65;100.00;95368.31;4950245;28;20648;-72
2021/12/12 01:47:14;;;;;;;9.87;8.87;;;;;;;0.68;100.00;95381.75;4952733;29;20513;-73
2021/12/12 01:49:46;;;;;;;11.73;8.73;;;;;;;0.65;100.00;95389.81;4949443;28;20209;-73
2021/12/12 01:52:20;;;;;;;8.90;8.00;;;;;;;0.70;100.00;95386.75;4976276;28;20200;-72
2021/12/12 01:54:50;;;;;;;10.23;8.87;;;;;;;0.74;100.00;95396.38;4967441;28;20188;-73
2021/12/12 01:57:29;;;;;;;9.87;8.87;;;;;;;0.70;100.00;95400.19;4974852;28;20195;-73
2021/12/12 01:59:58;;;;;;;11.97;9.37;;;;;;;0.72;100.00;95381.75;4953291;28;20194;-73
2021/12/12 02:02:32;;;;;;;11.00;9.20;;;;;;;0.66;100.00;95386.75;4963586;29;20273;-73
2021/12/12 02:05:04;;;;;;;10.10;8.93;;;;;;;0.69;100.00;95380.63;4965826;28;20231;-73
2021/12/12 02:07:35;;;;;;;11.37;9.23;;;;;;;0.72;100.00;95385.22;4962826;28;20615;-73
2021/12/12 02:10:09;;;;;;;9.50;8.23;;;;;;;0.67;100.00;95374.06;4960661;29;20193;-73
2021/12/12 02:12:36;;;;;;;10.60;9.20;;;;;;;0.82;100.00;95389.84;4950234;29;20216;-73
2021/12/12 02:15:02;;;;;;;10.07;8.90;;;;;;;0.80;100.00;95380.63;4953406;28;20337;-73
2021/12/12 02:17:37;;;;;;;11.07;8.80;;;;;;;0.81;100.00;95382.16;4952139;28;20196;-73
2021/12/12 02:23:22;;;;;;;12.70;9.70;;;;;;;0.96;100.00;95391.78;4934130;28;20201;-73
2021/12/12 02:36:41;;;;;;;9.97;7.70;;;;;;;1.01;100.00;95389.47;4952515;28;20198;-73
2021/12/12 02:39:15;;;;;;;10.20;6.67;;;;;;;0.97;100.00;95391.41;4954023;28;20218;-73
2021/12/12 02:41:51;;;;;;;9.10;7.43;;;;;;;1.02;100.00;95385.63;4935653;28;20259;-73
2021/12/12 02:44:21;;;;;;;9.50;7.13;;;;;;;1.03;100.00;95392.56;4953925;28;20218;-73
2021/12/12 02:46:48;;;;;;;8.17;7.00;;;;;;;1.08;100.00;95389.50;4950173;29;20256;-73
2021/12/12 02:52:08;;;;;;;7.90;6.13;;;;;;;1.00;100.00;95395.25;4942877;28;20296;-72
2021/12/12 02:54:34;;;;;;;9.40;7.10;;;;;;;1.01;100.00;95404.84;4953057;28;20329;-73
2021/12/12 02:57:00;;;;;;;10.00;7.10;;;;;;;1.13;100.00;95399.88;4955625;28;20679;-72
2021/12/12 02:59:25;;;;;;;9.53;7.67;;;;;;;1.26;100.00;95416.38;4950625;28;20569;-73
2021/12/12 03:02:00;;;;;;;10.00;8.30;;;;;;;1.32;100.00;95409.47;4951839;28;20197;-73
2021/12/12 03:04:27;;;;;;;11.77;7.30;;;;;;;1.30;100.00;95419.06;4952487;28;20778;-73
2021/12/12 03:06:54;;;;;;;8.53;6.90;;;;;;;1.13;100.00;95415.22;4935886;29;20564;-73
2021/12/12 03:09:44;;;;;;;10.57;7.10;;;;;;;1.30;100.00;95416.38;4951351;29;20717;-73
2021/12/12 03:12:15;;;;;;;9.37;6.93;;;;;;;1.24;100.00;95416.75;4961804;28;20260;-73
2021/12/12 03:14:42;;;;;;;9.80;6.93;;;;;;;1.24;100.00;95403.31;4963390;28;20658;-73
2021/12/12 03:17:15;;;;;;;9.57;7.33;;;;;;;1.29;100.00;95404.09;4945539;28;20259;-73
2021/12/12 03:19:46;;;;;;;11.70;8.03;;;;;;;1.25;100.00;95393.31;4968498;28;20255;-73
2021/12/12 03:22:13;;;;;;;12.10;8.57;;;;;;;1.27;100.00;95399.84;4966471;28;20197;-73
2021/12/12 03:24:39;;;;;;;10.27;7.70;;;;;;;1.26;100.00;95396.78;4966078;28;20209;-73
2021/12/12 03:27:06;;;;;;;11.40;8.30;;;;;;;1.23;100.00;95401.00;4959046;28;20205;-73
2021/12/12 03:29:33;;;;;;;11.90;8.10;;;;;;;1.09;100.00;95412.53;4962718;28;20221;-73
2021/12/12 03:32:09;;;;;;;16.93;8.67;;;;;;;1.36;100.00;95420.22;4965395;28;20276;-73
2021/12/12 03:34:38;;;;;;;12.03;8.73;;;;;;;1.44;100.00;95424.44;4945321;29;20692;-73
2021/12/12 03:37:07;;;;;;;15.03;10.10;;;;;;;1.27;100.00;95420.63;4951152;28;20206;-73
2021/12/12 03:39:36;;;;;;;14.43;10.30;;;;;;;1.31;100.00;95420.63;4952264;28;20248;-73
2021/12/12 03:42:12;;;;;;;13.97;10.07;;;;;;;1.49;100.00;95416.75;4957419;28;20226;-73
2021/12/12 03:44:39;;;;;;;17.93;9.63;;;;;;;1.41;100.00;95423.28;4956310;28;20213;-73
2021/12/12 03:47:11;;;;;;;11.27;9.00;;;;;;;1.45;100.00;95412.50;4952224;28;20240;-73
2021/12/12 03:49:38;;;;;;;8.23;6.80;;;;;;;1.13;100.00;95415.22;4955747;28;20878;-73
2021/12/12 03:52:08;;;;;;;14.17;7.30;;;;;;;1.30;100.00;95424.44;4955342;28;20197;-73
2021/12/12 03:54:34;;;;;;;9.60;7.63;;;;;;;1.18;100.00;95415.63;4953893;28;20186;-73
2021/12/12 03:57:00;;;;;;;10.23;7.90;;;;;;;1.24;100.00;95413.28;4957348;28;20200;-73
2021/12/12 03:59:27;;;;;;;8.40;7.30;;;;;;;1.27;100.00;95415.22;4975142;28;20213;-73
2021/12/12 04:01:53;;;;;;;9.87;7.67;;;;;;;1.15;100.00;95405.59;4946845;29;20197;-73
2021/12/12 04:04:26;;;;;;;7.67;6.63;;;;;;;1.13;100.00;95409.84;4947344;28;20206;-73
2021/12/12 04:06:53;;;;;;;8.37;6.53;;;;;;;0.98;100.00;95414.47;4954275;28;20190;-73
2021/12/12 04:09:19;;;;;;;8.00;7.20;;;;;;;1.29;100.00;95412.91;4954091;29;20213;-73
2021/12/12 04:11:50;;;;;;;11.30;8.03;;;;;;;1.10;100.00;95410.63;4954479;28;20196;-73
2021/12/12 04:14:17;;;;;;;8.23;7.20;;;;;;;0.98;100.00;95417.16;4936893;29;20202;-73
2021/12/12 04:16:50;;;;;;;9.23;7.83;;;;;;;1.04;100.00;95410.22;4938117;29;20245;-73
2021/12/12 04:19:16;;;;;;;8.43;7.10;;;;;;;1.09;100.00;95417.91;4935671;29;20202;-73
2021/12/12 04:21:42;;;;;;;9.80;8.57;;;;;;;1.05;100.00;95429.81;4940186;29;20221;-73
2021/12/12 04:24:09;;;;;;;9.47;7.73;;;;;;;1.28;100.00;95416.75;4952750;28;20727;-73
2021/12/12 04:26:39;;;;;;;10.73;8.13;;;;;;;1.07;100.00;95428.28;4966283;28;20202;-74
2021/12/12 04:29:09;;;;;;;9.43;8.23;;;;;;;1.22;100.00;95421.75;4954660;28;20210;-73
2021/12/12 04:31:38;;;;;;;8.30;7.10;;;;;;;1.16;100.00;95430.59;4953866;28;20296;-73
2021/12/12 04:34:04;;;;;;;9.50;8.47;;;;;;;1.27;100.00;95438.66;4955312;28;20662;-74
2021/12/12 04:36:43;;;;;;;9.27;8.00;;;;;;;1.27;100.00;95441.34;4954896;28;20186;-73
2021/12/12 04:39:15;;;;;;;10.37;8.20;;;;;;;1.19;100.00;95440.56;4953189;28;20237;-73
2021/12/12 04:41:42;;;;;;;8.70;7.80;;;;;;;1.07;100.00;95440.94;4950499;29;20650;-73
2021/12/12 04:44:08;;;;;;;8.57;7.13;;;;;;;0.97;100.00;95461.31;4956744;28;20757;-73
2021/12/12 04:49:56;;;;;;;7.77;6.77;;;;;;;1.22;100.00;95459.41;4948822;29;20272;-74
2021/12/12 04:52:50;;;;;;;8.10;7.30;;;;;;;1.32;100.00;95455.22;4952111;28;20201;-73
2021/12/12 04:55:44;;;;;;;9.37;7.57;;;;;;;1.21;100.00;95462.50;4949246;28;20201;-74
2021/12/12 04:58:18;;;;;;;8.57;7.50;;;;;;;1.21;100.00;95463.25;4958180;28;20221;-74
2021/12/12 05:00:49;;;;;;;9.60;7.77;;;;;;;1.24;100.00;95462.50;4935676;29;20194;-74
2021/12/12 05:03:33;;;;;;;7.77;6.97;;;;;;;1.38;100.00;95460.94;4943919;28;20365;-73
2021/12/12 05:06:12;;;;;;;8.03;6.83;;;;;;;1.23;100.00;95465.56;4950336;29;20194;-73
2021/12/12 05:08:48;;;;;;;9.67;6.77;;;;;;;1.09;100.00;95481.69;4954392;28;20218;-73
2021/12/12 05:11:23;;;;;;;9.40;7.73;;;;;;;1.13;100.00;95480.56;4928167;29;20961;-74
2021/12/12 05:13:55;;;;;;;8.77;7.03;;;;;;;1.27;100.00;95487.09;4951090;28;20190;-73
2021/12/12 05:16:35;;;;;;;7.87;6.23;;;;;;;1.44;100.00;95492.50;4954794;28;20197;-73
2021/12/12 05:19:10;;;;;;;7.37;6.27;;;;;;;1.34;100.00;95489.78;4965994;28;20213;-73
2021/12/12 05:21:40;;;;;;;7.20;5.80;;;;;;;1.32;100.00;95492.88;4966520;28;20209;-73
2021/12/12 05:24:09;;;;;;;6.07;5.47;;;;;;;1.23;100.00;95501.31;4973999;28;20236;-73
2021/12/12 05:26:46;;;;;;;8.60;6.77;;;;;;;1.34;100.00;95498.63;4973143;28;20259;-73
2021/12/12 05:29:25;;;;;;;6.20;5.57;;;;;;;1.30;100.00;95494.41;4970251;28;20235;-73
2021/12/12 05:31:54;;;;;;;7.20;5.97;;;;;;;1.33;100.00;95486.31;4960900;29;20262;-73
2021/12/12 05:34:23;;;;;;;7.20;6.43;;;;;;;1.37;100.00;95497.09;4949151;29;20204;-73
2021/12/12 05:36:52;;;;;;;7.90;6.27;;;;;;;1.39;100.00;95498.25;4961597;28;20245;-73
2021/12/12 05:39:20;;;;;;;7.33;6.40;;;;;;;1.29;100.00;95509.00;4952345;28;20277;-73
2021/12/12 05:41:48;;;;;;;7.33;6.40;;;;;;;1.28;100.00;95505.53;4953705;28;20185;-72
2021/12/12 05:44:16;;;;;;;7.47;6.33;;;;;;;1.25;100.00;95509.00;4951196;28;20217;-72
2021/12/12 05:46:43;;;;;;;8.27;6.23;;;;;;;1.23;100.00;95495.16;4953240;28;20209;-73
2021/12/12 05:49:11;;;;;;;8.97;6.10;;;;;;;1.30;100.00;95491.69;4952432;28;20302;-73
2021/12/12 05:51:37;;;;;;;7.30;6.50;;;;;;;1.17;100.00;95494.75;4953735;29;20253;-73
2021/12/12 05:54:04;;;;;;;8.00;6.73;;;;;;;1.18;100.00;95500.91;4953777;29;20213;-73
2021/12/12 05:56:32;;;;;;;6.83;5.97;;;;;;;1.01;100.00;95490.91;4949982;28;20193;-73
2021/12/12 05:58:59;;;;;;;7.10;5.63;;;;;;;1.00;100.00;95498.19;4953483;28;20217;-72
2021/12/12 06:01:28;;;;;;;5.07;4.57;;;;;;;0.97;100.00;95498.19;4950786;29;20383;-73
2021/12/12 06:03:54;;;;;;;5.40;4.80;;;;;;;1.00;100.00;95500.13;4951061;28;20359;-73
2021/12/12 06:06:37;;;;;;;5.57;5.07;;;;;;;1.10;100.00;95505.50;4951745;29;20296;-72
2021/12/12 06:09:06;;;;;;;7.00;5.53;;;;;;;1.07;100.00;95516.25;4951788;28;20221;-73
2021/12/12 06:11:34;;;;;;;7.37;5.37;;;;;;;1.15;100.00;95512.44;4951011;29;20201;-72
2021/12/12 06:14:01;;;;;;;5.63;4.93;;;;;;;1.20;100.00;95520.88;4948933;28;20762;-73
2021/12/12 06:16:30;;;;;;;5.97;5.37;;;;;;;1.17;100.00;95518.97;4954377;28;20194;-73
2021/12/12 06:19:01;;;;;;;5.37;4.80;;;;;;;1.19;100.00;95523.97;4952311;28;20700;-73
2021/12/12 06:21:28;;;;;;;4.73;4.10;;;;;;;1.15;100.00;95525.91;4951492;29;20197;-73
2021/12/12 06:23:54;;;;;;;6.07;4.90;;;;;;;1.10;100.00;95527.03;4952292;28;20690;-73
2021/12/12 06:26:21;;;;;;;5.63;5.10;;;;;;;1.22;100.00;95523.22;4945129;28;20204;-73
2021/12/12 06:28:49;;;;;;;6.40;5.10;;;;;;;1.26;100.00;95523.22;4934983;29;20217;-73
2021/12/12 06:31:16;;;;;;;6.93;5.30;;;;;;;1.36;100.00;95522.47;4952169;28;20563;-73
2021/12/12 06:33:42;;;;;;;5.53;4.93;;;;;;;1.38;100.00;95528.22;4946826;29;20589;-72
2021/12/12 06:36:11;;;;;;;6.23;5.63;;;;;;;1.52;100.00;95531.72;4939491;29;20201;-72
2021/12/12 06:38:40;;;;;;;6.77;5.30;;;;;;;1.63;100.00;95529.78;4966665;28;20240;-73
2021/12/12 06:41:08;;;;;;;6.10;5.23;;;;;;;1.62;100.00;95538.25;4944334;29;20355;-72
2021/12/12 06:43:35;;;;;;;7.27;6.07;;;;;;;1.65;100.00;95542.84;4943140;29;20274;-72
2021/12/12 06:46:05;;;;;;;5.83;5.23;;;;;;;1.64;100.00;95541.31;4948545;29;20195;-73
2021/12/12 06:48:32;;;;;;;5.57;4.83;;;;;;;1.62;100.00;95557.09;4945238;28;20218;-73
2021/12/12 06:50:59;;;;;;;5.23;4.70;;;;;;;1.73;100.00;95552.50;4944404;28;20201;-73
2021/12/12 06:53:27;;;;;;;6.57;5.90;;;;;;;1.70;100.00;95545.16;4952289;28;20214;-73
2021/12/12 06:55:54;;;;;;;7.27;6.53;;;;;;;1.84;100.00;95556.72;4955787;28;20214;-73
2021/12/12 06:58:21;;;;;;;7.50;5.90;;;;;;;1.72;100.00;95542.88;4948841;28;20249;-73
2021/12/12 07:00:55;;;;;;;6.70;6.00;;;;;;;1.55;100.00;95557.06;4952734;28;20190;-73
2021/12/12 07:03:22;;;;;;;6.80;5.63;;;;;;;1.52;100.00;95550.56;4951264;29;20193;-73
2021/12/12 07:05:48;;;;;;;6.03;4.50;;;;;;;1.27;100.00;95547.81;4952570;28;20288;-73
2021/12/12 07:08:16;;;;;;;6.03;5.23;;;;;;;1.27;100.00;95547.81;4947223;28;20221;-73
2021/12/12 07:10:44;;;;;;;5.60;4.77;;;;;;;1.28;100.00;95559.34;4959620;28;20194;-73
2021/12/12 07:13:10;;;;;;;6.50;5.57;;;;;;;1.48;100.00;95562.47;4950646;29;20200;-73
2021/12/12 07:15:46;;;;;;;8.53;6.30;;;;;;;1.59;100.00;95555.94;4952656;28;20197;-73
2021/12/12 07:18:16;;;;;;;6.13;5.37;;;;;;;1.43;100.00;95554.75;4951434;28;20271;-73
2021/12/12 07:20:43;;;;;;;6.03;5.43;;;;;;;1.57;100.00;95560.16;4952774;29;20626;-73
2021/12/12 07:23:11;;;;;;;6.67;5.87;;;;;;;1.82;100.00;95564.41;4958338;28;20255;-73
2021/12/12 07:25:39;;;;;;;6.13;5.40;;;;;;;1.90;100.00;95571.31;4961026;28;20224;-73
2021/12/12 07:28:06;;;;;;;6.17;5.57;;;;;;;1.77;100.00;95574.78;4955479;28;20309;-73
2021/12/12 07:30:33;;;;;;;5.43;4.93;;;;;;;1.58;100.00;95570.53;4968982;28;20197;-73
2021/12/12 07:32:59;;;;;;;6.03;5.43;;;;;;;1.47;100.00;95579.75;4955725;28;20252;-74
2021/12/12 07:35:26;;;;;;;5.20;4.50;;;;;;;1.50;100.00;95582.47;4968401;28;20202;-73
2021/12/12 07:37:52;;;;;;;5.60;4.60;;;;;;;1.43;100.00;95592.44;4970558;28;20213;-74
2021/12/12 07:40:20;;;;;;;5.67;5.07;;;;;;;1.64;100.00;95587.88;4947049;29;20201;-73
2021/12/12 07:42:48;;;;;;;6.73;5.43;;;;;;;1.87;100.00;95590.97;4949602;28;20198;-74
2021/12/12 07:45:15;;;;;;;5.83;5.17;;;;;;;1.82;100.00;95588.66;4952303;29;20214;-74
2021/12/12 07:47:41;;;;;;;5.17;4.67;;;;;;;1.88;100.00;95605.19;4949486;28;20205;-73
2021/12/12 07:50:12;;;;;;;5.60;4.90;;;;;;;1.88;100.00;95599.81;4952595;29;20198;-73
2021/12/12 07:52:38;;;;;;;7.60;5.17;;;;;;;1.95;100.00;95597.13;4952111;28;20197;-74
2021/12/12 07:55:05;;;;;;;7.17;5.50;;;;;;;1.93;100.00;95610.22;4955517;28;20194;-73
2021/12/12 07:57:31;;;;;;;5.80;5.20;;;;;;;2.07;100.00;95600.19;4953031;28;20230;-73
2021/12/12 07:59:59;;;;;;;6.93;6.17;;;;;;;2.26;100.00;95596.31;4954028;28;20247;-74
2021/12/12 08:02:27;;;;;;;6.40;5.70;;;;;;;2.34;100.00;95604.03;4958903;28;20197;-73
2021/12/12 08:04:54;;;;;;;7.50;5.90;;;;;;;2.37;100.00;95605.97;4951714;28;20222;-74
2021/12/12 08:07:22;;;;;;;5.93;5.20;;;;;;;2.42;100.00;95607.50;4949361;28;20286;-74
2021/12/12 08:09:51;;;;;;;6.73;5.83;;;;;;;2.42;100.00;95608.25;4965827;28;20208;-73
2021/12/12 08:12:22;;;;;;;6.63;5.90;;;;;;;2.61;100.00;95611.69;4966655;28;20190;-74
2021/12/12 08:14:49;;;;;;;7.27;5.77;;;;;;;2.59;100.00;95616.69;4954796;28;20186;-74
2021/12/12 08:17:16;;;;;;;6.00;5.27;;;;;;;2.66;100.00;95606.69;4946501;28;20206;-74
2021/12/12 08:19:43;;;;;;;6.50;5.67;;;;;;;2.72;100.00;95602.41;4953928;28;20345;-74
2021/12/12 08:22:10;;;;;;;8.50;6.03;;;;;;;2.91;100.00;95601.19;4953796;28;20202;-74
2021/12/12 08:24:37;;;;;;;7.97;5.73;;;;;;;2.82;100.00;95608.97;4955561;28;20269;-74
2021/12/12 08:27:06;;;;;;;6.73;6.03;;;;;;;2.67;100.00;95599.34;4946797;28;20189;-74
2021/12/12 08:29:33;;;;;;;6.10;5.37;;;;;;;2.67;100.00;95602.81;4958212;28;20236;-74
2021/12/12 08:31:59;;;;;;;6.57;5.83;;;;;;;2.54;100.00;95600.91;4968023;28;20197;-74
2021/12/12 08:34:27;;;;;;;6.80;6.10;;;;;;;2.27;100.00;95605.97;4952864;29;20188;-74
2021/12/12 08:36:55;;;;;;;7.97;6.60;;;;;;;2.45;100.00;95601.31;4954853;28;20218;-74
2021/12/12 08:39:21;;;;;;;7.23;6.53;;;;;;;2.34;100.00;95612.09;4954824;28;20217;-74
2021/12/12 08:41:50;;;;;;;7.30;6.57;;;;;;;2.66;100.00;95612.06;4954059;29;20201;-74
2021/12/12 08:44:18;;;;;;;7.80;6.10;;;;;;;2.78;100.00;95602.78;4959766;29;20218;-74
2021/12/12 08:46:47;;;;;;;8.00;6.83;;;;;;;2.58;100.00;95599.75;4956921;29;20199;-74
2021/12/12 08:49:15;;;;;;;9.33;7.70;;;;;;;2.51;100.00;95605.19;4947235;29;20210;-74
2021/12/12 08:51:50;;;;;;;11.83;8.20;;;;;;;2.71;100.00;95602.81;4956131;28;20221;-74
2021/12/12 08:54:23;;;;;;;11.37;8.07;;;;;;;2.64;100.00;95610.91;4978114;28;20201;-74
2021/12/12 08:56:55;;;;;;;13.70;7.60;;;;;;;2.79;100.00;95609.72;4955623;29;20199;-74
2021/12/12 08:59:25;;;;;;;9.03;7.40;;;;;;;2.92;100.00;95600.81;4963281;29;20220;-74
2021/12/12 09:01:56;;;;;;;9.97;7.07;;;;;;;2.94;100.00;95603.88;4962785;28;20220;-74
2021/12/12 09:04:22;;;;;;;8.67;7.47;;;;;;;2.93;100.00;95598.88;4972414;28;20275;-75
2021/12/12 09:07:00;;;;;;;7.10;6.23;;;;;;;2.88;100.00;95610.09;4956587;28;20200;-74
2021/12/12 09:09:36;;;;;;;6.53;5.87;;;;;;;2.91;100.00;95601.19;4955712;28;20256;-74
2021/12/12 09:12:12;;;;;;;8.17;5.90;;;;;;;2.89;100.00;95604.28;4937317;29;20209;-74
2021/12/12 09:14:54;;;;;;;5.40;4.90;;;;;;;2.91;100.00;95612.00;4950199;29;20623;-74
2021/12/12 09:17:35;;;;;;;5.67;4.90;;;;;;;2.96;100.00;95604.28;4951695;29;20659;-74
2021/12/12 09:20:10;;;;;;;5.27;4.77;;;;;;;2.95;100.00;95612.75;4953952;29;20197;-74
2021/12/12 09:22:44;;;;;;;5.93;5.33;;;;;;;3.19;100.00;95612.66;4954570;28;20253;-74
2021/12/12 09:25:35;;;;;;;5.13;4.63;;;;;;;3.01;100.00;95611.19;4955217;28;20224;-74
2021/12/12 09:28:09;;;;;;;6.40;5.03;;;;;;;2.96;100.00;95620.47;4934607;29;20634;-74
2021/12/12 09:30:37;;;;;;;6.07;5.40;;;;;;;3.00;100.00;95615.06;4954088;29;20200;-74
2021/12/12 09:33:19;;;;;;;5.33;4.53;;;;;;;2.92;100.00;95622.38;4951636;29;20193;-74
2021/12/12 09:36:00;;;;;;;5.77;5.03;;;;;;;3.05;100.00;95620.03;4954263;28;20652;-74
2021/12/12 09:38:38;;;;;;;5.53;4.90;;;;;;;3.01;100.00;95622.75;4954017;28;20605;-74
2021/12/12 09:41:37;;;;;;;5.13;4.40;;;;;;;3.04;100.00;95627.38;4941336;28;20190;-74
2021/12/12 09:44:02;;;;;;;5.10;4.40;;;;;;;2.97;100.00;95626.63;4948295;29;20723;-74
2021/12/12 09:53:34;;;;;;;5.63;5.03;;;;;;;3.29;100.00;95624.59;4948721;28;20204;-74
2021/12/12 09:56:02;;;;;;;5.67;4.90;;;;;;;3.27;100.00;95626.91;4949372;28;20204;-74
2021/12/12 09:58:52;;;;;;;6.33;5.13;;;;;;;3.16;100.00;95626.94;4952548;28;20220;-74
2021/12/12 10:01:23;;;;;;;5.57;5.03;;;;;;;2.96;100.00;95619.69;4953551;28;20205;-74
2021/12/12 10:03:53;;;;;;;5.33;4.83;;;;;;;3.22;100.00;95614.59;4949154;28;20206;-74
2021/12/12 10:06:45;;;;;;;5.27;4.63;;;;;;;3.23;100.00;95618.81;4949279;29;20305;-74
2021/12/12 10:09:16;;;;;;;4.87;4.37;;;;;;;3.26;100.00;95622.66;4952430;28;20214;-74
2021/12/12 10:12:00;;;;;;;4.90;4.40;;;;;;;3.18;100.00;95611.13;4952044;28;20280;-73
2021/12/12 10:14:31;;;;;;;5.73;5.10;;;;;;;3.15;100.00;95611.13;4943720;29;20193;-74
2021/12/12 10:17:03;;;;;;;5.93;4.70;;;;;;;3.37;99.82;95607.19;4962407;28;20191;-74
2021/12/12 10:19:39;;;;;;;5.53;4.93;;;;;;;3.52;100.00;95595.91;4937156;28;20218;-74
2021/12/12 10:22:35;;;;;;;6.30;5.27;;;;;;;3.39;100.00;95607.56;4963352;28;20192;-74
2021/12/12 10:25:12;;;;;;;5.03;4.53;;;;;;;3.28;100.00;95596.81;4945382;28;20211;-74
2021/12/12 10:27:52;;;;;;;4.97;4.47;;;;;;;3.57;99.53;95582.00;4932177;29;20204;-74
2021/12/12 10:30:34;;;;;;;5.07;4.57;;;;;;;3.51;99.33;95588.97;4933242;29;20191;-74
2021/12/12 10:33:21;;;;;;;4.73;4.27;;;;;;;3.25;99.62;95596.81;4932876;29;20195;-74
2021/12/12 10:35:55;;;;;;;4.23;3.83;;;;;;;3.36;99.35;95600.25;4944704;29;20193;-74
2021/12/12 10:38:35;;;;;;;5.50;4.33;;;;;;;3.33;100.00;95574.81;4951154;29;20276;-75
2021/12/12 10:41:11;;;;;;;4.27;3.87;;;;;;;3.63;100.00;95585.81;4949584;28;20563;-74
2021/12/12 10:43:43;;;;;;;6.13;5.00;;;;;;;3.90;100.00;95588.72;4934198;29;20212;-74
2021/12/12 10:46:28;;;;;;;4.60;4.20;;;;;;;3.87;100.00;95580.66;4951443;29;20755;-74
2021/12/12 10:49:29;;;;;;;4.17;3.77;;;;;;;4.13;96.97;95585.44;4934325;29;20301;-74
2021/12/12 10:52:01;;;;;;;5.07;4.50;;;;;;;4.04;95.27;95587.84;4927935;28;20213;-74
2021/12/12 10:54:35;;;;;;;4.93;4.30;;;;;;;3.75;96.45;95571.06;4962184;28;20197;-74
2021/12/12 10:57:05;;;;;;;4.53;4.13;;;;;;;3.64;96.01;95579.25;4962966;28;20233;-74
2021/12/12 10:59:35;;;;;;;5.33;4.60;;;;;;;3.73;96.11;95568.75;4944588;28;20213;-74
2021/12/12 11:02:08;;;;;;;5.00;4.40;;;;;;;3.64;97.11;95570.38;4942549;28;20301;-74
2021/12/12 11:04:39;;;;;;;5.47;4.60;;;;;;;3.62;96.58;95567.31;4960469;28;20300;-74
2021/12/12 11:07:22;;;;;;;4.40;4.00;;;;;;;3.61;97.69;95566.53;4970662;28;20688;-74
2021/12/12 11:10:06;;;;;;;4.87;4.47;;;;;;;3.30;98.75;95564.81;4953833;28;20225;-74
2021/12/12 11:12:40;;;;;;;5.40;4.90;;;;;;;3.30;100.00;95575.59;4952200;28;20201;-74
2021/12/12 11:15:27;;;;;;;5.17;4.63;;;;;;;3.34;99.91;95589.81;4952062;28;20240;-74
2021/12/12 11:18:13;;;;;;;6.20;4.63;;;;;;;3.52;99.30;95582.41;4950845;28;20221;-74
2021/12/12 11:20:43;;;;;;;5.13;4.73;;;;;;;3.57;99.61;95567.72;4952658;29;20586;-74
2021/12/12 11:23:27;;;;;;;4.47;4.07;;;;;;;3.70;98.02;95577.66;4952918;29;20280;-74
2021/12/12 11:26:00;;;;;;;4.83;4.33;;;;;;;3.52;97.68;95573.53;4946916;29;20206;-74
2021/12/12 11:28:30;;;;;;;4.27;3.87;;;;;;;3.54;98.05;95557.72;4953644;28;20213;-74
2021/12/12 11:31:07;;;;;;;4.47;4.07;;;;;;;3.90;97.34;95571.75;4951036;29;20266;-73
2021/12/12 11:33:35;;;;;;;4.80;4.30;;;;;;;4.27;94.81;95553.66;4947927;28;20213;-74
2021/12/12 11:36:05;;;;;;;4.33;3.87;;;;;;;4.51;91.58;95549.94;4958254;28;20189;-73
2021/12/12 11:38:30;;;;;;;5.93;4.13;;;;;;;4.64;92.65;95537.44;4969231;28;20220;-74
2021/12/12 11:41:15;;;;;;;3.40;3.10;;;;;;;4.91;91.25;95546.41;4962381;28;20265;-73
2021/12/12 11:43:57;;;;;;;3.63;3.30;;;;;;;4.91;88.51;95540.22;4946586;29;20196;-74
2021/12/12 11:46:32;;;;;;;3.40;2.93;;;;;;;4.91;90.38;95549.13;4936387;29;20194;-74
2021/12/12 11:49:00;;;;;;;2.33;2.13;;;;;;;5.02;88.79;95542.81;4953352;29;20238;-74
2021/12/12 11:52:05;;;;;;;2.23;2.03;;;;;;;4.73;88.61;95537.72;4940081;29;20194;-74
2021/12/12 11:54:49;;;;;;;2.30;1.90;;;;;;;4.55;91.41;95547.97;4919008;29;20242;-74
2021/12/12 11:57:21;;;;;;;2.03;1.67;;;;;;;4.18;94.52;95544.47;4939530;28;20836;-74
2021/12/12 12:00:09;;;;;;;1.60;1.50;;;;;;;4.27;91.93;95558.28;4970707;28;20653;-74
2021/12/12 12:02:46;;;;;;;1.70;1.60;;;;;;;4.49;90.49;95554.22;4950238;28;20652;-74
2021/12/12 12:05:56;;;;;;;2.13;1.93;;;;;;;4.73;88.47;95545.09;4960780;28;20573;-74
2021/12/12 12:08:44;;;;;;;1.97;1.63;;;;;;;4.46;90.34;95542.25;4953770;28;20283;-74
2021/12/12 12:11:32;;;;;;;1.60;1.50;;;;;;;4.23;91.04;95541.34;4954263;28;20193;-74
2021/12/12 12:14:09;;;;;;;2.17;1.63;;;;;;;4.55;93.51;95537.16;4956096;28;20193;-74
2021/12/12 12:16:49;;;;;;;2.60;2.40;;;;;;;4.75;90.79;95538.09;4953311;28;20689;-74
2021/12/12 12:19:39;;;;;;;2.10;1.67;;;;;;;4.61;88.90;95534.78;4955362;28;20808;-74
2021/12/12 12:22:08;;;;;;;2.77;2.37;;;;;;;4.74;88.52;95533.84;4952323;28;20186;-74
2021/12/12 12:24:44;;;;;;;2.00;1.47;;;;;;;4.35;90.18;95535.44;4952049;28;20210;-74
2021/12/12 12:27:13;;;;;;;1.53;1.43;;;;;;;4.51;92.40;95532.97;4946219;28;20197;-74